createdAt,value
2018-07-05T00:00:46.536Z,99.90
2018-07-05T00:03:33.646Z,99.90
2018-07-05T00:06:20.575Z,99.90
2018-07-05T00:11:48.402Z,99.90
2018-07-05T00:14:35.486Z,99.90
2018-07-05T00:17:23.081Z,99.90
2018-07-05T00:20:10.360Z,99.90
2018-07-05T00:22:58.449Z,99.90
2018-07-05T00:25:45.555Z,99.90
2018-07-05T00:28:32.563Z,99.90
2018-07-05T00:31:19.532Z,99.90
2018-07-05T00:34:06.533Z,99.90
2018-07-05T00:36:53.686Z,99.90
2018-07-05T00:39:40.637Z,99.90
2018-07-05T00:42:27.528Z,99.90
2018-07-05T00:45:14.538Z,99.90
2018-07-05T00:48:01.595Z,99.90
2018-07-05T00:50:48.626Z,99.90
2018-07-05T00:53:35.793Z,99.90
2018-07-05T00:56:23.612Z,99.90
2018-07-05T00:59:11.018Z,99.90
2018-07-05T01:01:57.995Z,99.90
2018-07-05T01:04:44.936Z,99.90
2018-07-05T01:07:32.133Z,99.90
2018-07-05T01:10:19.569Z,99.90
2018-07-05T01:13:06.495Z,99.90
2018-07-05T01:15:53.637Z,99.90
2018-07-05T01:18:40.510Z,99.90
2018-07-05T01:21:27.552Z,99.90
2018-07-05T01:24:15.912Z,99.90
2018-07-05T01:27:03.015Z,99.90
2018-07-05T01:29:50.218Z,99.90
2018-07-05T01:32:37.134Z,99.90
2018-07-05T01:35:24.080Z,99.90
2018-07-05T01:38:10.872Z,99.90
2018-07-05T01:40:57.870Z,99.90
2018-07-05T01:43:44.904Z,99.90
2018-07-05T01:46:31.973Z,99.90
2018-07-05T01:49:18.896Z,99.90
2018-07-05T01:52:10.189Z,99.90
2018-07-05T01:54:57.428Z,99.90
2018-07-05T01:57:44.432Z,99.90
2018-07-05T02:00:31.443Z,99.90
2018-07-05T02:03:18.428Z,99.90
2018-07-05T02:06:05.465Z,99.90
2018-07-05T02:08:52.565Z,99.90
2018-07-05T02:11:40.365Z,99.90
2018-07-05T02:14:27.582Z,99.90
2018-07-05T02:17:14.673Z,99.90
2018-07-05T02:20:01.773Z,99.90
2018-07-05T02:22:48.838Z,99.90
2018-07-05T02:25:35.904Z,99.90
2018-07-05T02:28:23.012Z,99.90
2018-07-05T02:31:10.257Z,99.90
2018-07-05T02:33:59.435Z,99.90
2018-07-05T02:39:32.889Z,99.90
2018-07-05T02:42:19.913Z,99.90
2018-07-05T02:45:07.056Z,99.90
2018-07-05T02:47:54.240Z,99.90
2018-07-05T02:50:41.342Z,99.90
2018-07-05T02:53:28.402Z,99.90
2018-07-05T02:56:15.561Z,99.90
2018-07-05T02:59:02.693Z,99.90
2018-07-05T03:01:49.956Z,99.90
2018-07-05T03:04:37.017Z,99.90
2018-07-05T03:07:23.892Z,99.90
2018-07-05T03:10:11.032Z,99.90
2018-07-05T03:12:58.890Z,99.90
2018-07-05T03:18:26.568Z,99.90
2018-07-05T03:21:13.594Z,99.90
2018-07-05T03:24:00.714Z,99.90
2018-07-05T03:26:47.748Z,99.90
2018-07-05T03:29:34.832Z,99.90
2018-07-05T03:32:22.368Z,99.90
2018-07-05T03:35:09.864Z,99.90
2018-07-05T03:37:57.013Z,99.90
2018-07-05T03:40:44.043Z,99.90
2018-07-05T03:43:31.219Z,99.90
2018-07-05T03:46:18.152Z,99.90
2018-07-05T03:49:05.084Z,99.90
2018-07-05T03:51:51.997Z,99.90
2018-07-05T03:54:39.248Z,99.90
2018-07-05T03:57:26.285Z,99.90
2018-07-05T04:00:13.388Z,99.90
2018-07-05T04:03:00.469Z,99.90
2018-07-05T04:05:47.404Z,99.90
2018-07-05T04:08:34.510Z,99.90
2018-07-05T04:11:21.456Z,99.90
2018-07-05T04:14:08.463Z,99.90
2018-07-05T04:16:55.559Z,99.90
2018-07-05T04:19:48.126Z,99.90
2018-07-05T04:22:35.140Z,99.90
2018-07-05T04:25:22.156Z,99.90
2018-07-05T04:28:09.388Z,99.90
2018-07-05T04:30:56.503Z,99.90
2018-07-05T04:33:43.669Z,99.90
2018-07-05T04:36:30.556Z,99.90
2018-07-05T04:39:17.652Z,99.90
2018-07-05T04:42:04.894Z,99.90
2018-07-05T04:44:52.193Z,99.90
2018-07-05T04:47:39.420Z,99.90
2018-07-05T04:50:26.565Z,99.90
2018-07-05T04:53:13.541Z,99.90
2018-07-05T04:56:00.637Z,99.90
2018-07-05T04:58:47.585Z,99.90
2018-07-05T05:01:34.622Z,99.90
2018-07-05T05:07:02.488Z,99.90
2018-07-05T05:09:49.409Z,99.90
2018-07-05T05:12:36.442Z,99.90
2018-07-05T05:15:23.741Z,99.90
2018-07-05T05:18:10.736Z,99.90
2018-07-05T05:23:38.638Z,99.90
2018-07-05T05:26:25.852Z,99.90
2018-07-05T05:29:12.867Z,99.90
2018-07-05T05:31:59.884Z,99.90
2018-07-05T05:34:46.901Z,99.90
2018-07-05T05:37:33.879Z,99.90
2018-07-05T05:40:21.164Z,99.90
2018-07-05T05:43:08.180Z,99.90
2018-07-05T05:45:55.408Z,99.90
2018-07-05T05:48:42.595Z,99.90
2018-07-05T05:51:29.583Z,99.90
2018-07-05T05:54:16.669Z,99.90
2018-07-05T05:57:03.917Z,99.90
2018-07-05T05:59:51.157Z,99.90
2018-07-05T06:02:38.367Z,99.90
2018-07-05T06:05:25.540Z,99.90
2018-07-05T06:08:12.670Z,99.90
2018-07-05T06:10:59.588Z,99.90
2018-07-05T06:16:27.629Z,99.90
2018-07-05T06:19:15.017Z,99.90
2018-07-05T06:22:02.106Z,99.90
2018-07-05T06:24:49.203Z,99.90
2018-07-05T06:27:36.247Z,99.90
2018-07-05T06:30:23.283Z,99.90
2018-07-05T06:33:10.465Z,99.90
2018-07-05T06:35:57.512Z,99.90
2018-07-05T06:38:44.565Z,99.90
2018-07-05T06:41:31.447Z,99.90
2018-07-05T06:44:18.923Z,99.90
2018-07-05T06:47:06.484Z,99.90
2018-07-05T06:49:53.603Z,99.90
2018-07-05T06:52:40.659Z,99.90
2018-07-05T06:55:27.762Z,99.90
2018-07-05T06:58:14.837Z,99.90
2018-07-05T07:01:01.856Z,99.90
2018-07-05T07:03:49.813Z,99.90
2018-07-05T07:06:37.030Z,99.90
2018-07-05T07:09:23.952Z,99.90
2018-07-05T07:12:10.913Z,99.90
2018-07-05T07:14:57.912Z,99.90
2018-07-05T07:17:45.229Z,99.90
2018-07-05T07:20:32.024Z,99.90
2018-07-05T07:23:19.417Z,99.90
2018-07-05T07:26:06.565Z,99.90
2018-07-05T07:28:53.637Z,99.90
2018-07-05T07:31:41.154Z,99.90
2018-07-05T07:34:28.412Z,99.90
2018-07-05T07:37:15.311Z,99.90
2018-07-05T07:40:02.296Z,99.90
2018-07-05T07:42:38.224Z,99.90
2018-07-05T07:45:06.640Z,99.90
2018-07-05T07:47:35.060Z,99.90
2018-07-05T07:50:03.464Z,99.90
2018-07-05T07:52:31.934Z,99.90
2018-07-05T07:55:00.444Z,99.90
2018-07-05T07:57:28.890Z,99.90
2018-07-05T07:59:57.332Z,99.90
2018-07-05T08:02:25.738Z,99.90
2018-07-05T08:04:54.743Z,99.90
2018-07-05T08:07:23.159Z,99.90
2018-07-05T08:09:51.589Z,99.90
2018-07-05T08:12:20.009Z,99.90
2018-07-05T08:14:48.470Z,99.90
2018-07-05T08:17:16.903Z,99.90
2018-07-05T08:19:45.309Z,99.90
2018-07-05T08:22:14.016Z,99.90
2018-07-05T08:24:42.448Z,99.90
2018-07-05T08:27:10.853Z,99.90
2018-07-05T08:29:39.273Z,99.90
2018-07-05T08:34:36.319Z,98.20
2018-07-05T08:37:10.348Z,97.90
2018-07-05T08:39:38.247Z,97.90
2018-07-05T08:42:06.696Z,98.30
2018-07-05T08:44:35.118Z,98.40
2018-07-05T08:47:03.554Z,98.10
2018-07-05T08:52:02.517Z,98.00
2018-07-05T08:54:30.973Z,98.10
2018-07-05T08:56:59.388Z,97.50
2018-07-05T08:59:27.819Z,96.60
2018-07-05T09:01:56.226Z,95.90
2018-07-05T09:04:24.862Z,95.70
2018-07-05T09:09:21.736Z,92.90
2018-07-05T09:11:50.261Z,92.30
2018-07-05T09:14:18.690Z,92.30
2018-07-05T09:16:47.112Z,87.70
2018-07-05T09:19:15.619Z,88.10
2018-07-05T09:21:44.041Z,86.80
2018-07-05T09:24:12.488Z,84.00
2018-07-05T09:26:41.247Z,82.70
2018-07-05T09:29:09.688Z,79.00
2018-07-05T09:31:38.164Z,74.60
2018-07-05T09:34:06.593Z,74.00
2018-07-05T09:36:35.289Z,71.60
2018-07-05T09:39:04.689Z,69.60
2018-07-05T09:41:33.561Z,67.00
2018-07-05T09:44:02.052Z,66.00
2018-07-05T09:46:30.505Z,63.80
2018-07-05T09:48:58.940Z,59.30
2018-07-05T09:51:27.367Z,58.30
2018-07-05T09:53:55.765Z,57.60
2018-07-05T09:56:24.512Z,57.70
2018-07-05T09:58:52.915Z,57.70
2018-07-05T10:01:21.333Z,58.80
2018-07-05T10:03:49.764Z,58.70
2018-07-05T10:06:18.251Z,59.00
2018-07-05T10:08:46.695Z,60.10
2018-07-05T10:11:15.118Z,60.00
2018-07-05T10:16:12.079Z,61.10
2018-07-05T10:18:40.496Z,63.30
2018-07-05T10:21:08.948Z,64.10
2018-07-05T10:26:05.924Z,66.70
2018-07-05T10:28:34.366Z,65.60
2018-07-05T10:31:15.049Z,66.90
2018-07-05T10:33:50.667Z,64.00
2018-07-05T10:36:19.068Z,63.10
2018-07-05T10:41:28.523Z,64.30
2018-07-05T10:44:15.754Z,64.60
2018-07-05T10:47:02.881Z,63.30
2018-07-05T10:49:50.181Z,61.70
2018-07-05T10:52:37.327Z,61.80
2018-07-05T10:55:24.438Z,62.40
2018-07-05T10:58:11.461Z,64.20
2018-07-05T11:00:59.940Z,64.20
2018-07-05T11:03:47.112Z,66.10
2018-07-05T11:06:34.197Z,69.10
2018-07-05T11:09:21.300Z,69.30
2018-07-05T11:12:08.255Z,69.70
2018-07-05T11:14:55.503Z,71.70
2018-07-05T11:17:42.588Z,71.30
2018-07-05T11:20:30.001Z,71.90
2018-07-05T11:23:17.049Z,72.10
2018-07-05T11:26:04.052Z,73.70
2018-07-05T11:28:51.452Z,74.10
2018-07-05T11:31:39.117Z,75.10
2018-07-05T11:34:26.130Z,76.30
2018-07-05T11:37:13.151Z,75.90
2018-07-05T11:40:00.307Z,76.40
2018-07-05T11:42:47.500Z,75.40
2018-07-05T11:45:34.595Z,74.10
2018-07-05T11:48:21.592Z,72.40
2018-07-05T11:51:08.420Z,72.30
2018-07-05T11:53:55.412Z,70.00
2018-07-05T11:56:45.682Z,68.40
2018-07-05T11:59:32.720Z,68.10
2018-07-05T12:05:00.837Z,67.90
2018-07-05T12:07:48.978Z,68.30
2018-07-05T12:10:36.082Z,68.60
2018-07-05T12:13:23.556Z,68.50
2018-07-05T12:16:10.728Z,70.20
2018-07-05T12:18:57.551Z,70.60
2018-07-05T12:21:44.757Z,69.00
2018-07-05T12:24:31.995Z,69.10
2018-07-05T12:27:19.068Z,68.60
2018-07-05T12:30:06.403Z,69.30
2018-07-05T12:32:53.266Z,70.70
2018-07-05T12:35:40.233Z,69.00
2018-07-05T12:38:27.089Z,70.70
2018-07-05T12:41:14.022Z,69.40
2018-07-05T12:44:01.196Z,71.60
2018-07-05T12:46:48.304Z,71.10
2018-07-05T12:49:35.317Z,71.60
2018-07-05T12:55:03.498Z,70.90
2018-07-05T12:57:50.597Z,71.70
2018-07-05T13:00:37.561Z,72.20
2018-07-05T13:03:25.132Z,72.30
2018-07-05T13:06:12.002Z,72.00
2018-07-05T13:08:59.116Z,72.80
2018-07-05T13:11:46.153Z,73.60
2018-07-05T13:14:33.152Z,74.50
2018-07-05T13:17:20.323Z,75.20
2018-07-05T13:20:07.656Z,74.80
2018-07-05T13:22:54.721Z,75.10
2018-07-05T13:25:41.935Z,76.90
2018-07-05T13:28:29.104Z,76.70
2018-07-05T13:31:16.105Z,76.20
2018-07-05T13:34:03.226Z,76.40
2018-07-05T13:36:50.316Z,78.10
2018-07-05T13:39:37.391Z,75.20
2018-07-05T13:42:24.235Z,75.50
2018-07-05T13:45:11.461Z,74.80
2018-07-05T13:47:58.466Z,75.00
2018-07-05T13:50:46.004Z,75.10
2018-07-05T13:53:33.160Z,74.70
2018-07-05T13:56:20.192Z,74.60
2018-07-05T13:59:07.235Z,74.40
2018-07-05T14:01:54.226Z,74.50
2018-07-05T14:04:41.282Z,73.40
2018-07-05T14:07:28.258Z,74.70
2018-07-05T14:10:15.527Z,75.10
2018-07-05T14:13:02.877Z,74.30
2018-07-05T14:15:49.759Z,76.50
2018-07-05T14:18:36.740Z,76.20
2018-07-05T14:21:23.989Z,77.70
2018-07-05T14:24:11.041Z,76.60
2018-07-05T14:26:58.218Z,77.20
2018-07-05T14:29:45.135Z,77.70
2018-07-05T14:32:32.196Z,78.50
2018-07-05T14:35:19.228Z,78.80
2018-07-05T14:38:06.986Z,78.10
2018-07-05T14:40:54.024Z,80.20
2018-07-05T14:43:41.274Z,82.90
2018-07-05T14:46:28.308Z,85.90
2018-07-05T14:49:15.431Z,89.40
2018-07-05T14:52:02.794Z,91.20
2018-07-05T14:54:49.759Z,92.50
2018-07-05T14:57:36.824Z,95.50
2018-07-05T15:00:23.932Z,99.90
2018-07-05T15:03:10.671Z,99.90
2018-07-05T15:05:59.054Z,99.90
2018-07-05T15:11:26.988Z,99.90
2018-07-05T15:14:14.079Z,99.90
2018-07-05T15:17:00.832Z,99.90
2018-07-05T15:19:47.748Z,99.90
2018-07-05T15:22:34.871Z,99.90
2018-07-05T15:25:21.917Z,99.90
2018-07-05T15:28:09.059Z,99.90
2018-07-05T15:30:56.094Z,99.90
2018-07-05T15:33:43.310Z,99.90
2018-07-05T15:36:30.344Z,99.90
2018-07-05T15:39:17.465Z,99.90
2018-07-05T15:42:04.480Z,99.90
2018-07-05T15:44:51.528Z,99.90
2018-07-05T15:47:39.487Z,99.90
2018-07-05T15:50:26.449Z,99.90
2018-07-05T15:53:13.400Z,99.90
2018-07-05T15:56:00.450Z,99.90
2018-07-05T15:58:47.405Z,99.90
2018-07-05T16:01:34.523Z,99.90
2018-07-05T16:04:21.627Z,99.90
2018-07-05T16:07:08.778Z,99.90
2018-07-05T16:09:55.782Z,99.90
2018-07-05T16:12:42.949Z,99.90
2018-07-05T16:15:29.854Z,99.90
2018-07-05T16:20:57.975Z,99.90
2018-07-05T16:23:45.157Z,99.90
2018-07-05T16:26:32.076Z,99.90
2018-07-05T16:31:59.753Z,99.90
2018-07-05T16:34:46.677Z,99.90
2018-07-05T16:37:33.820Z,99.90
2018-07-05T16:40:21.064Z,99.90
2018-07-05T16:43:07.854Z,99.90
2018-07-05T16:45:55.041Z,99.90
2018-07-05T16:48:42.096Z,99.90
2018-07-05T16:51:29.075Z,99.90
2018-07-05T16:54:16.181Z,99.90
2018-07-05T17:02:24.755Z,99.90
2018-07-05T17:07:52.360Z,99.90
2018-07-05T17:10:39.590Z,99.90
2018-07-05T17:13:26.820Z,99.30
2018-07-05T17:16:14.121Z,97.60
2018-07-05T17:19:01.176Z,97.10
2018-07-05T17:21:48.243Z,96.70
2018-07-05T17:24:35.245Z,95.70
2018-07-05T17:27:22.293Z,94.60
2018-07-05T17:30:09.136Z,95.00
2018-07-05T17:32:56.192Z,95.00
2018-07-05T17:35:43.107Z,95.00
2018-07-05T17:38:30.098Z,93.70
2018-07-05T17:41:17.153Z,93.30
2018-07-05T17:44:04.135Z,93.10
2018-07-05T17:46:51.267Z,93.00
2018-07-05T17:49:38.449Z,92.50
2018-07-05T17:52:25.493Z,92.10
2018-07-05T17:55:13.113Z,92.60
2018-07-05T17:58:00.366Z,92.70
2018-07-05T18:03:28.800Z,92.90
2018-07-05T18:06:15.983Z,92.40
2018-07-05T18:11:43.849Z,92.50
2018-07-05T18:14:30.788Z,92.70
2018-07-05T18:17:17.748Z,93.10
2018-07-05T18:20:04.832Z,93.50
2018-07-05T18:22:51.964Z,93.00
2018-07-05T18:25:39.030Z,93.10
2018-07-05T18:28:26.034Z,93.40
2018-07-05T18:31:13.176Z,93.10
2018-07-05T18:36:40.839Z,93.50
2018-07-05T18:39:28.074Z,93.50
2018-07-05T18:42:15.119Z,93.70
2018-07-05T18:50:24.707Z,94.20
2018-07-05T18:53:11.681Z,94.20
2018-07-05T18:55:58.881Z,94.40
2018-07-05T18:58:46.043Z,94.30
2018-07-05T19:01:33.185Z,94.30
2018-07-05T19:04:20.138Z,94.20
2018-07-05T19:07:08.905Z,94.30
2018-07-05T19:09:55.994Z,94.30
2018-07-05T19:12:42.988Z,94.60
2018-07-05T19:15:29.975Z,94.70
2018-07-05T19:18:17.093Z,94.40
2018-07-05T19:21:04.074Z,94.70
2018-07-05T19:23:52.538Z,94.40
2018-07-05T19:26:39.723Z,94.50
2018-07-05T19:29:26.699Z,94.60
2018-07-05T19:32:13.797Z,94.70
2018-07-05T19:35:00.938Z,94.60
2018-07-05T19:40:28.900Z,95.00
2018-07-05T19:43:15.865Z,95.20
2018-07-05T19:46:02.969Z,95.20
2018-07-05T19:51:30.912Z,94.90
2018-07-05T19:54:18.181Z,95.20
2018-07-05T19:57:05.435Z,95.10
2018-07-05T19:59:52.408Z,94.90
2018-07-05T20:02:39.474Z,94.90
2018-07-05T20:05:26.930Z,95.10
2018-07-05T20:08:14.037Z,95.10
2018-07-05T20:11:03.385Z,95.10
2018-07-05T20:13:50.424Z,95.30
2018-07-05T20:16:37.528Z,95.70
2018-07-05T20:19:25.029Z,95.90
2018-07-05T20:22:17.681Z,96.00
2018-07-05T20:25:04.757Z,96.50
2018-07-05T20:27:52.144Z,96.80
2018-07-05T20:30:39.962Z,96.80
2018-07-05T20:33:28.968Z,96.90
2018-07-05T20:36:16.858Z,97.20
2018-07-05T20:39:09.954Z,97.70
2018-07-05T20:42:01.068Z,97.90
2018-07-05T20:44:53.923Z,98.10
2018-07-05T20:47:41.030Z,98.20
2018-07-05T20:50:28.299Z,98.30
2018-07-05T20:53:15.245Z,98.20
2018-07-05T20:56:02.223Z,98.30
2018-07-05T20:58:49.024Z,98.40
2018-07-05T21:01:36.102Z,98.40
2018-07-05T21:04:23.589Z,98.40
2018-07-05T21:07:10.782Z,98.50
2018-07-05T21:09:57.774Z,98.70
2018-07-05T21:12:44.763Z,98.80
2018-07-05T21:15:32.008Z,98.90
2018-07-05T21:18:19.037Z,99.00
2018-07-05T21:21:06.174Z,99.10
2018-07-05T21:23:53.025Z,99.10
2018-07-05T21:29:20.805Z,99.30
2018-07-05T21:32:08.435Z,99.50
2018-07-05T21:34:55.393Z,99.70
2018-07-05T21:37:42.433Z,99.80
2018-07-05T21:43:10.152Z,99.90
2018-07-05T21:45:57.208Z,99.80
2018-07-05T21:48:44.216Z,99.90
2018-07-05T21:51:31.109Z,99.90
2018-07-05T21:54:18.424Z,99.90
2018-07-05T21:57:05.330Z,99.90
2018-07-05T21:59:52.388Z,99.90
2018-07-05T22:02:39.349Z,99.90
2018-07-05T22:05:26.290Z,99.90
2018-07-05T22:08:13.272Z,99.90
2018-07-05T22:11:00.305Z,99.90
2018-07-05T22:13:47.521Z,99.90
2018-07-05T22:16:36.707Z,99.90
2018-07-05T22:19:29.274Z,99.90
2018-07-05T22:22:21.888Z,99.90
2018-07-05T22:25:14.521Z,99.90
2018-07-05T22:28:06.981Z,99.90
2018-07-05T22:30:59.611Z,99.90
2018-07-05T22:33:46.680Z,99.90
2018-07-05T22:36:33.779Z,99.90
2018-07-05T22:39:20.876Z,99.90
2018-07-05T22:42:08.100Z,99.90
2018-07-05T22:44:55.009Z,99.90
2018-07-05T22:47:42.316Z,99.90
2018-07-05T22:50:29.253Z,99.90
2018-07-05T22:53:16.303Z,99.90
2018-07-05T22:58:44.557Z,99.90
2018-07-05T23:01:32.032Z,99.90
2018-07-05T23:04:19.355Z,99.90
2018-07-05T23:09:47.101Z,99.90
2018-07-05T23:12:34.047Z,99.90
2018-07-05T23:15:21.164Z,99.90
2018-07-05T23:18:08.175Z,99.90
2018-07-05T23:20:55.177Z,99.90
2018-07-05T23:23:43.156Z,99.90
2018-07-05T23:26:30.055Z,99.90
2018-07-05T23:29:17.075Z,99.90
2018-07-05T23:37:25.507Z,99.90
2018-07-05T23:40:12.629Z,99.90
2018-07-05T23:42:59.600Z,99.90
2018-07-05T23:45:46.612Z,99.90
2018-07-05T23:48:33.536Z,99.90
2018-07-05T23:51:20.581Z,99.90
2018-07-05T23:54:07.668Z,99.90
2018-07-05T23:56:54.813Z,99.90
2018-07-05T23:59:41.607Z,99.90
